createdAt,value
2018-07-26T00:00:49.649Z,6.5
2018-07-26T00:02:49.824Z,7.0
2018-07-26T00:04:50.431Z,6.7
2018-07-26T00:06:49.801Z,6.8
2018-07-26T00:08:50.022Z,6.8
2018-07-26T00:10:50.216Z,7.2
2018-07-26T00:12:50.365Z,7.2
2018-07-26T00:14:49.599Z,7.6
2018-07-26T00:16:50.017Z,7.8
2018-07-26T00:18:50.280Z,7.8
2018-07-26T00:20:50.388Z,7.4
2018-07-26T00:22:49.687Z,7.9
2018-07-26T00:24:50.114Z,7.7
2018-07-26T00:26:50.499Z,7.7
2018-07-26T00:28:49.765Z,8.1
2018-07-26T00:30:50.076Z,7.8
2018-07-26T00:32:50.543Z,7.8
2018-07-26T00:34:50.048Z,7.8
2018-07-26T00:36:50.533Z,7.8
2018-07-26T00:38:49.674Z,8.1
2018-07-26T00:40:49.861Z,7.8
2018-07-26T00:42:50.123Z,7.9
2018-07-26T00:44:49.526Z,7.9
2018-07-26T00:46:49.996Z,7.4
2018-07-26T00:48:50.423Z,8.0
2018-07-26T00:50:50.222Z,7.5
2018-07-26T00:52:50.421Z,8.1
2018-07-26T00:54:49.618Z,8.9
2018-07-26T00:56:50.089Z,8.9
2018-07-26T00:58:50.282Z,8.6
2018-07-26T01:00:50.482Z,8.0
2018-07-26T01:02:49.644Z,8.3
2018-07-26T01:04:50.107Z,8.3
2018-07-26T01:06:49.593Z,7.9
2018-07-26T01:08:49.846Z,8.3
2018-07-26T01:10:50.212Z,7.8
2018-07-26T01:12:50.490Z,8.0
2018-07-26T01:14:49.750Z,8.0
2018-07-26T01:16:50.106Z,7.8
2018-07-26T01:18:50.239Z,8.1
2018-07-26T01:20:49.672Z,7.7
2018-07-26T01:22:49.826Z,8.1
2018-07-26T01:24:50.020Z,8.1
2018-07-26T01:26:50.465Z,8.2
2018-07-26T01:28:49.623Z,8.0
2018-07-26T01:30:49.867Z,7.7
2018-07-26T01:32:50.147Z,8.0
2018-07-26T01:34:49.876Z,8.0
2018-07-26T01:36:50.170Z,8.5
2018-07-26T01:38:50.311Z,8.2
2018-07-26T01:40:49.648Z,8.1
2018-07-26T01:42:49.917Z,8.1
2018-07-26T01:44:50.164Z,7.9
2018-07-26T01:46:49.645Z,7.7
2018-07-26T01:48:49.890Z,7.7
2018-07-26T01:50:50.109Z,7.4
2018-07-26T01:52:50.260Z,7.7
2018-07-26T01:54:49.591Z,8.2
2018-07-26T01:56:49.995Z,8.5
2018-07-26T01:58:50.257Z,8.5
2018-07-26T02:00:49.548Z,8.8
2018-07-26T02:02:49.740Z,8.8
2018-07-26T02:04:50.272Z,9.0
2018-07-26T02:06:49.887Z,8.6
2018-07-26T02:08:50.263Z,8.6
2018-07-26T02:10:50.512Z,9.1
2018-07-26T02:12:49.767Z,8.6
2018-07-26T02:14:50.039Z,9.1
2018-07-26T02:16:50.473Z,9.5
2018-07-26T02:18:49.594Z,9.3
2018-07-26T02:20:49.788Z,9.3
2018-07-26T02:22:49.991Z,8.7
2018-07-26T02:24:50.158Z,9.5
2018-07-26T02:26:49.644Z,9.2
2018-07-26T02:28:49.917Z,9.4
2018-07-26T02:30:50.217Z,10.0
2018-07-26T02:32:49.658Z,10.0
2018-07-26T02:34:50.223Z,9.8
2018-07-26T02:36:49.724Z,9.3
2018-07-26T02:38:50.484Z,9.3
2018-07-26T02:40:49.880Z,9.9
2018-07-26T02:42:50.134Z,9.9
2018-07-26T02:44:50.201Z,9.9
2018-07-26T02:46:49.739Z,10.8
2018-07-26T02:48:49.964Z,10.6
2018-07-26T02:50:50.340Z,10.6
2018-07-26T02:52:49.612Z,9.8
2018-07-26T02:54:49.904Z,9.8
2018-07-26T02:56:50.333Z,10.2
2018-07-26T02:58:49.540Z,10.4
2018-07-26T03:00:49.784Z,10.4
2018-07-26T03:02:50.085Z,10.5
2018-07-26T03:04:49.691Z,10.5
2018-07-26T03:06:50.154Z,10.3
2018-07-26T03:08:50.338Z,11.2
2018-07-26T03:10:49.648Z,11.2
2018-07-26T03:12:49.870Z,10.9
2018-07-26T03:14:50.071Z,10.8
2018-07-26T03:16:49.538Z,11.3
2018-07-26T03:18:49.732Z,11.3
2018-07-26T03:20:50.051Z,11.2
2018-07-26T03:22:49.541Z,11.7
2018-07-26T03:24:49.811Z,10.9
2018-07-26T03:26:50.468Z,11.9
2018-07-26T03:28:49.593Z,12.2
2018-07-26T03:30:49.888Z,12.2
2018-07-26T03:32:50.250Z,11.6
2018-07-26T03:34:50.024Z,11.5
2018-07-26T03:36:50.474Z,11.2
2018-07-26T03:38:49.850Z,11.2
2018-07-26T03:40:50.004Z,11.2
2018-07-26T03:42:50.251Z,11.0
2018-07-26T03:44:49.634Z,11.0
2018-07-26T03:46:50.218Z,11.4
2018-07-26T03:48:50.397Z,11.3
2018-07-26T03:50:49.678Z,11.5
2018-07-26T03:52:50.124Z,11.2
2018-07-26T03:54:50.035Z,10.9
2018-07-26T03:56:49.537Z,11.0
2018-07-26T03:58:49.813Z,11.0
2018-07-26T04:00:50.050Z,10.7
2018-07-26T04:02:50.289Z,11.5
2018-07-26T04:04:50.237Z,11.2
2018-07-26T04:06:49.725Z,11.2
2018-07-26T04:08:49.876Z,11.6
2018-07-26T04:10:50.321Z,10.8
2018-07-26T04:12:49.676Z,10.8
2018-07-26T04:14:49.901Z,11.0
2018-07-26T04:16:50.442Z,11.0
2018-07-26T04:18:49.755Z,10.4
2018-07-26T04:20:50.002Z,10.4
2018-07-26T04:22:50.170Z,10.7
2018-07-26T04:24:50.437Z,10.9
2018-07-26T04:26:49.823Z,10.9
2018-07-26T04:28:50.037Z,9.9
2018-07-26T04:30:50.289Z,10.8
2018-07-26T04:32:49.659Z,10.2
2018-07-26T04:34:50.269Z,10.6
2018-07-26T04:36:50.001Z,10.6
2018-07-26T04:38:50.195Z,10.3
2018-07-26T04:40:50.360Z,10.4
2018-07-26T04:42:49.581Z,10.4
2018-07-26T04:44:50.135Z,10.2
2018-07-26T04:46:49.594Z,10.2
2018-07-26T04:48:49.864Z,9.8
2018-07-26T04:50:50.422Z,9.8
2018-07-26T04:52:49.803Z,9.5
2018-07-26T04:54:49.613Z,9.0
2018-07-26T04:56:50.097Z,9.0
2018-07-26T04:58:50.345Z,9.4
2018-07-26T05:00:50.567Z,9.3
2018-07-26T05:02:49.991Z,9.3
2018-07-26T05:04:49.701Z,9.3
2018-07-26T05:06:50.015Z,10.4
2018-07-26T05:08:50.318Z,10.0
2018-07-26T05:10:49.724Z,12.0
2018-07-26T05:12:49.851Z,10.1
2018-07-26T05:14:50.216Z,10.1
2018-07-26T05:16:49.836Z,9.2
2018-07-26T05:18:50.065Z,9.0
2018-07-26T05:20:50.207Z,8.4
2018-07-26T05:22:50.480Z,8.9
2018-07-26T05:24:49.637Z,8.9
2018-07-26T05:26:50.001Z,9.1
2018-07-26T05:28:50.283Z,8.6
2018-07-26T05:30:49.770Z,9.9
2018-07-26T05:32:50.055Z,7.6
2018-07-26T05:34:49.767Z,7.6
2018-07-26T05:36:49.988Z,7.4
2018-07-26T05:38:50.246Z,7.4
2018-07-26T05:40:49.551Z,7.4
2018-07-26T05:42:49.763Z,6.8
2018-07-26T05:44:49.896Z,6.8
2018-07-26T05:46:50.347Z,6.6
2018-07-26T05:48:50.387Z,5.2
2018-07-26T05:50:49.804Z,7.5
2018-07-26T05:52:50.269Z,5.4
2018-07-26T05:54:50.373Z,5.4
2018-07-26T05:56:49.764Z,5.4
2018-07-26T05:58:50.067Z,5.8
2018-07-26T06:00:50.251Z,5.8
2018-07-26T06:02:50.233Z,6.1
2018-07-26T06:04:49.936Z,19.4
2018-07-26T06:06:50.411Z,7.5
2018-07-26T06:08:49.550Z,10.7
2018-07-26T06:10:49.799Z,6.4
2018-07-26T06:12:50.050Z,6.0
2018-07-26T06:14:50.251Z,6.0
2018-07-26T06:16:49.708Z,6.2
2018-07-26T06:18:49.931Z,5.6
2018-07-26T06:20:50.169Z,5.6
2018-07-26T06:22:50.431Z,6.0
2018-07-26T06:24:49.744Z,6.2
2018-07-26T06:26:50.182Z,7.4
2018-07-26T06:28:50.419Z,7.4
2018-07-26T06:30:49.768Z,6.3
2018-07-26T06:32:49.998Z,6.3
2018-07-26T06:34:49.588Z,6.6
2018-07-26T06:36:50.052Z,7.2
2018-07-26T06:38:50.358Z,6.8
2018-07-26T06:40:49.602Z,6.8
2018-07-26T06:42:49.928Z,5.8
2018-07-26T06:44:50.204Z,5.5
2018-07-26T06:46:49.775Z,9.8
2018-07-26T06:48:49.993Z,5.5
2018-07-26T06:50:50.236Z,5.5
2018-07-26T06:52:49.547Z,5.0
2018-07-26T06:54:49.707Z,4.9
2018-07-26T06:56:50.351Z,6.6
2018-07-26T06:58:49.575Z,6.6
2018-07-26T07:00:49.826Z,5.0
2018-07-26T07:02:49.634Z,4.2
2018-07-26T07:04:50.172Z,4.5
2018-07-26T07:06:50.494Z,4.2
2018-07-26T07:08:49.684Z,4.2
2018-07-26T07:10:49.927Z,4.4
2018-07-26T07:12:50.066Z,6.2
2018-07-26T07:14:50.342Z,4.3
2018-07-26T07:16:49.844Z,4.4
2018-07-26T07:18:50.113Z,4.4
2018-07-26T07:20:50.334Z,6.5
2018-07-26T07:22:49.676Z,4.6
2018-07-26T07:24:49.996Z,4.0
2018-07-26T07:26:50.514Z,4.0
2018-07-26T07:28:49.700Z,3.8
2018-07-26T07:30:50.105Z,3.8
2018-07-26T07:32:50.339Z,4.0
2018-07-26T07:34:50.111Z,4.0
2018-07-26T07:36:49.822Z,4.7
2018-07-26T07:38:50.370Z,4.0
2018-07-26T07:40:50.495Z,4.0
2018-07-26T07:42:49.963Z,4.7
2018-07-26T07:44:50.225Z,3.8
2018-07-26T07:46:49.739Z,3.8
2018-07-26T07:48:49.898Z,19.5
2018-07-26T07:50:50.172Z,19.5
2018-07-26T07:52:50.584Z,3.9
2018-07-26T07:54:49.926Z,3.8
2018-07-26T07:56:50.299Z,3.8
2018-07-26T07:58:49.551Z,3.8
2018-07-26T08:00:49.793Z,3.7
2018-07-26T08:02:50.004Z,3.8
2018-07-26T08:04:49.673Z,3.8
2018-07-26T08:06:50.212Z,3.8
2018-07-26T08:08:50.098Z,3.7
2018-07-26T08:10:50.402Z,4.0
2018-07-26T08:12:49.770Z,4.5
2018-07-26T08:14:49.939Z,4.1
2018-07-26T08:16:50.431Z,3.6
2018-07-26T08:18:49.793Z,3.6
2018-07-26T08:20:49.996Z,3.8
2018-07-26T08:22:50.273Z,4.4
2018-07-26T08:24:50.489Z,4.9
2018-07-26T08:26:49.916Z,4.9
2018-07-26T08:28:50.083Z,3.4
2018-07-26T08:30:50.362Z,3.6
2018-07-26T08:32:49.694Z,4.1
2018-07-26T08:34:50.360Z,3.7
2018-07-26T08:36:49.721Z,3.7
2018-07-26T08:38:50.005Z,3.6
2018-07-26T08:40:50.178Z,3.8
2018-07-26T08:42:50.518Z,3.8
2018-07-26T08:44:49.915Z,4.6
2018-07-26T08:46:50.442Z,3.0
2018-07-26T08:48:49.590Z,8.7
2018-07-26T08:50:49.921Z,3.8
2018-07-26T08:52:50.234Z,3.6
2018-07-26T08:54:50.334Z,3.6
2018-07-26T08:56:49.878Z,3.2
2018-07-26T08:58:50.160Z,12.6
2018-07-26T09:00:50.461Z,3.3
2018-07-26T09:02:49.580Z,3.2
2018-07-26T09:04:50.103Z,5.2
2018-07-26T09:06:49.656Z,5.2
2018-07-26T09:08:49.812Z,3.8
2018-07-26T09:10:50.103Z,8.6
2018-07-26T09:12:49.747Z,2.8
2018-07-26T09:14:50.027Z,4.0
2018-07-26T09:16:50.518Z,4.0
2018-07-26T09:18:49.828Z,2.5
2018-07-26T09:20:50.059Z,3.8
2018-07-26T09:22:50.247Z,5.3
2018-07-26T09:24:50.486Z,3.3
2018-07-26T09:26:50.091Z,3.3
2018-07-26T09:28:50.400Z,2.4
2018-07-26T09:30:49.808Z,3.3
2018-07-26T09:32:50.252Z,3.7
2018-07-26T09:34:50.241Z,3.7
2018-07-26T09:36:49.808Z,3.6
2018-07-26T09:38:50.026Z,3.1
2018-07-26T09:40:50.447Z,3.0
2018-07-26T09:42:49.650Z,3.0
2018-07-26T09:44:49.959Z,3.0
2018-07-26T09:46:50.405Z,3.1
2018-07-26T09:48:50.480Z,3.3
2018-07-26T09:50:49.620Z,3.0
2018-07-26T09:52:49.837Z,3.0
2018-07-26T09:54:50.023Z,3.0
2018-07-26T09:56:49.838Z,3.1
2018-07-26T09:58:50.097Z,3.1
2018-07-26T10:00:50.250Z,3.1
2018-07-26T10:02:50.296Z,41.3
2018-07-26T10:04:50.050Z,41.3
2018-07-26T10:06:50.580Z,3.6
2018-07-26T10:08:50.195Z,5.0
2018-07-26T10:10:50.564Z,3.9
2018-07-26T10:12:49.890Z,3.3
2018-07-26T10:14:50.170Z,3.3
2018-07-26T10:16:49.694Z,3.9
2018-07-26T10:18:49.925Z,3.9
2018-07-26T10:20:50.225Z,3.6
2018-07-26T10:22:50.331Z,3.1
2018-07-26T10:24:49.563Z,3.4
2018-07-26T10:26:50.352Z,3.3
2018-07-26T10:28:49.724Z,3.5
2018-07-26T10:30:49.890Z,4.0
2018-07-26T10:32:50.147Z,4.0
2018-07-26T10:34:49.970Z,3.0
2018-07-26T10:36:50.331Z,3.1
2018-07-26T10:38:50.442Z,3.1
2018-07-26T10:40:49.694Z,3.1
2018-07-26T10:42:50.091Z,3.1
2018-07-26T10:44:50.281Z,3.1
2018-07-26T10:46:49.821Z,3.0
2018-07-26T10:48:50.082Z,4.9
2018-07-26T10:50:50.286Z,4.9
2018-07-26T10:52:50.514Z,3.6
2018-07-26T10:54:49.926Z,3.0
2018-07-26T10:56:50.329Z,3.1
2018-07-26T10:58:50.513Z,5.5
2018-07-26T11:00:49.765Z,5.5
2018-07-26T11:02:50.350Z,3.1
2018-07-26T11:04:49.890Z,3.7
2018-07-26T11:06:50.301Z,5.0
2018-07-26T11:08:49.563Z,3.1
2018-07-26T11:10:49.882Z,3.1
2018-07-26T11:12:50.165Z,3.0
2018-07-26T11:14:50.418Z,2.8
2018-07-26T11:16:49.696Z,3.1
2018-07-26T11:18:49.849Z,2.8
2018-07-26T11:20:50.152Z,2.8
2018-07-26T11:22:50.362Z,3.0
2018-07-26T11:24:50.446Z,2.8
2018-07-26T11:26:49.945Z,3.4
2018-07-26T11:28:50.210Z,3.4
2018-07-26T11:30:50.318Z,8.6
2018-07-26T11:32:49.529Z,2.9
2018-07-26T11:34:50.306Z,3.5
2018-07-26T11:36:49.663Z,3.2
2018-07-26T11:38:49.776Z,3.2
2018-07-26T11:40:50.061Z,3.2
2018-07-26T11:42:50.281Z,3.0
2018-07-26T11:44:50.486Z,3.0
2018-07-26T11:46:49.884Z,3.0
2018-07-26T11:48:50.210Z,3.2
2018-07-26T11:50:50.402Z,3.2
2018-07-26T11:52:49.625Z,3.1
2018-07-26T11:54:50.510Z,3.4
2018-07-26T11:56:49.969Z,3.4
2018-07-26T11:58:50.522Z,3.1
2018-07-26T12:00:49.701Z,3.1
2018-07-26T12:02:50.026Z,3.8
2018-07-26T12:04:49.689Z,3.1
2018-07-26T12:06:50.174Z,2.8
2018-07-26T12:08:49.666Z,2.8
2018-07-26T12:10:49.912Z,3.1
2018-07-26T12:12:50.184Z,4.0
2018-07-26T12:14:50.371Z,4.0
2018-07-26T12:16:49.862Z,3.0
2018-07-26T12:18:50.001Z,2.9
2018-07-26T12:20:50.211Z,2.8
2018-07-26T12:22:49.531Z,4.1
2018-07-26T12:24:49.814Z,4.3
2018-07-26T12:26:50.669Z,4.3
2018-07-26T12:28:50.505Z,3.8
2018-07-26T12:30:49.875Z,5.7
2018-07-26T12:32:50.235Z,3.1
2018-07-26T12:34:49.797Z,14.1
2018-07-26T12:36:50.181Z,4.4
2018-07-26T12:38:50.443Z,4.4
2018-07-26T12:40:49.621Z,3.8
2018-07-26T12:42:49.797Z,4.5
2018-07-26T12:44:50.165Z,4.5
2018-07-26T12:46:49.779Z,2.9
2018-07-26T12:48:49.950Z,2.9
2018-07-26T12:50:49.875Z,3.1
2018-07-26T12:52:50.110Z,3.2
2018-07-26T12:54:50.509Z,3.2
2018-07-26T12:56:49.518Z,3.2
2018-07-26T12:58:50.136Z,3.1
2018-07-26T13:00:50.321Z,3.0
2018-07-26T13:02:49.547Z,3.4
2018-07-26T13:04:50.339Z,3.3
2018-07-26T13:06:49.822Z,3.3
2018-07-26T13:08:50.116Z,3.7
2018-07-26T13:10:50.362Z,3.3
2018-07-26T13:12:49.579Z,19.7
2018-07-26T13:14:49.935Z,4.8
2018-07-26T13:16:50.014Z,4.8
2018-07-26T13:18:50.183Z,4.2
2018-07-26T13:20:50.389Z,3.3
2018-07-26T13:22:49.800Z,5.1
2018-07-26T13:24:49.967Z,3.0
2018-07-26T13:26:50.342Z,3.0
2018-07-26T13:28:49.687Z,3.2
2018-07-26T13:30:49.826Z,3.0
2018-07-26T13:32:50.063Z,3.0
2018-07-26T13:34:49.685Z,3.9
2018-07-26T13:36:50.133Z,5.2
2018-07-26T13:38:50.365Z,3.3
2018-07-26T13:40:49.632Z,3.6
2018-07-26T13:42:49.937Z,3.3
2018-07-26T13:44:50.150Z,3.3
2018-07-26T13:46:50.487Z,3.3
2018-07-26T13:48:49.751Z,3.2
2018-07-26T13:50:50.055Z,3.3
2018-07-26T13:52:50.393Z,3.9
2018-07-26T13:54:49.761Z,3.9
2018-07-26T13:56:50.279Z,3.9
2018-07-26T13:58:49.708Z,3.8
2018-07-26T14:00:49.893Z,3.1
2018-07-26T14:02:50.095Z,3.1
2018-07-26T14:04:49.692Z,3.0
2018-07-26T14:06:50.115Z,3.4
2018-07-26T14:08:50.353Z,2.9
2018-07-26T14:10:49.548Z,3.1
2018-07-26T14:12:49.876Z,3.1
2018-07-26T14:14:50.267Z,3.2
2018-07-26T14:16:49.676Z,15.1
2018-07-26T14:18:49.938Z,5.5
2018-07-26T14:20:50.423Z,5.5
2018-07-26T14:22:50.076Z,3.0
2018-07-26T14:24:50.350Z,3.0
2018-07-26T14:26:49.861Z,2.9
2018-07-26T14:28:49.954Z,2.9
2018-07-26T14:30:50.287Z,2.9
2018-07-26T14:32:49.638Z,3.1
2018-07-26T14:34:50.224Z,3.0
2018-07-26T14:36:49.908Z,3.1
2018-07-26T14:38:50.111Z,3.3
2018-07-26T14:40:50.392Z,3.3
2018-07-26T14:42:49.653Z,3.1
2018-07-26T14:44:49.982Z,3.1
2018-07-26T14:46:49.629Z,3.2
2018-07-26T14:48:49.882Z,3.2
2018-07-26T14:50:50.099Z,2.9
2018-07-26T14:52:50.248Z,2.9
2018-07-26T14:54:50.499Z,2.6
2018-07-26T14:56:49.954Z,3.6
2018-07-26T14:58:50.266Z,3.2
2018-07-26T15:00:50.164Z,3.0
2018-07-26T15:02:49.838Z,3.0
2018-07-26T15:04:50.495Z,2.9
2018-07-26T15:06:50.010Z,10.9
2018-07-26T15:08:50.360Z,3.1
2018-07-26T15:10:49.669Z,3.0
2018-07-26T15:12:49.844Z,3.0
2018-07-26T15:14:50.264Z,5.9
2018-07-26T15:16:49.847Z,3.5
2018-07-26T15:18:50.007Z,3.1
2018-07-26T15:20:50.193Z,2.9
2018-07-26T15:22:49.509Z,2.9
2018-07-26T15:24:49.792Z,3.1
2018-07-26T15:26:50.218Z,2.9
2018-07-26T15:28:50.470Z,3.0
2018-07-26T15:30:49.695Z,3.0
2018-07-26T15:32:49.932Z,3.1
2018-07-26T15:34:49.926Z,3.0
2018-07-26T15:36:50.499Z,3.0
2018-07-26T15:38:49.720Z,2.9
2018-07-26T15:40:49.892Z,2.9
2018-07-26T15:42:50.148Z,3.2
2018-07-26T15:44:50.421Z,2.9
2018-07-26T15:46:49.873Z,3.0
2018-07-26T15:48:50.151Z,3.0
2018-07-26T15:50:50.315Z,3.0
2018-07-26T15:52:50.512Z,3.0
2018-07-26T15:54:49.759Z,22.5
2018-07-26T15:56:50.317Z,22.5
2018-07-26T15:58:49.531Z,8.6
2018-07-26T16:00:49.734Z,8.6
2018-07-26T16:02:50.007Z,3.1
2018-07-26T16:04:49.610Z,3.1
2018-07-26T16:06:50.082Z,2.8
2018-07-26T16:08:50.345Z,2.8
2018-07-26T16:10:50.492Z,3.2
2018-07-26T16:12:49.705Z,3.2
2018-07-26T16:14:50.169Z,3.3
2018-07-26T16:16:49.565Z,3.5
2018-07-26T16:18:49.714Z,3.5
2018-07-26T16:20:49.995Z,3.3
2018-07-26T16:22:50.288Z,3.2
2018-07-26T16:24:49.544Z,2.8
2018-07-26T16:26:49.934Z,2.8
2018-07-26T16:28:50.299Z,2.8
2018-07-26T16:30:50.010Z,2.9
2018-07-26T16:32:50.205Z,3.4
2018-07-26T16:34:49.963Z,3.1
2018-07-26T16:36:50.464Z,3.1
2018-07-26T16:38:49.732Z,3.2
2018-07-26T16:40:50.040Z,3.2
2018-07-26T16:42:50.275Z,3.2
2018-07-26T16:44:50.483Z,3.1
2018-07-26T16:46:50.173Z,3.1
2018-07-26T16:48:50.352Z,3.3
2018-07-26T16:50:49.565Z,3.0
2018-07-26T16:52:49.850Z,3.0
2018-07-26T16:54:50.103Z,3.0
2018-07-26T16:56:49.613Z,3.2
2018-07-26T16:58:50.091Z,3.1
2018-07-26T17:00:50.288Z,3.3
2018-07-26T17:02:50.426Z,3.4
2018-07-26T17:04:50.080Z,3.5
2018-07-26T17:06:50.507Z,3.5
2018-07-26T17:08:49.720Z,3.6
2018-07-26T17:10:49.935Z,3.5
2018-07-26T17:12:50.240Z,3.5
2018-07-26T17:14:49.652Z,3.7
2018-07-26T17:16:50.053Z,4.0
2018-07-26T17:18:50.444Z,3.7
2018-07-26T17:20:50.245Z,3.4
2018-07-26T17:22:49.559Z,3.4
2018-07-26T17:24:49.703Z,3.3
2018-07-26T17:26:50.354Z,3.3
2018-07-26T17:28:49.674Z,3.8
2018-07-26T17:30:50.109Z,3.9
2018-07-26T17:32:50.305Z,3.5
2018-07-26T17:34:50.074Z,3.5
2018-07-26T17:36:50.449Z,3.6
2018-07-26T17:38:49.610Z,5.4
2018-07-26T17:40:49.840Z,3.7
2018-07-26T17:42:50.097Z,4.7
2018-07-26T17:44:50.392Z,4.7
2018-07-26T17:46:49.995Z,5.0
2018-07-26T17:48:50.220Z,3.7
2018-07-26T17:50:50.318Z,3.8
2018-07-26T17:52:50.484Z,3.8
2018-07-26T17:54:49.884Z,3.8
2018-07-26T17:56:50.612Z,3.9
2018-07-26T17:58:49.749Z,3.6
2018-07-26T18:00:50.114Z,5.0
2018-07-26T18:02:50.378Z,5.0
2018-07-26T18:04:49.982Z,4.1
2018-07-26T18:06:50.367Z,3.9
2018-07-26T18:08:49.706Z,4.7
2018-07-26T18:10:49.828Z,4.0
2018-07-26T18:12:50.179Z,4.0
2018-07-26T18:14:50.423Z,4.0
2018-07-26T18:16:50.131Z,4.2
2018-07-26T18:18:50.390Z,4.0
2018-07-26T18:20:49.872Z,4.0
2018-07-26T18:22:49.607Z,4.2
2018-07-26T18:24:49.740Z,4.2
2018-07-26T18:26:50.187Z,3.9
2018-07-26T18:28:50.419Z,3.8
2018-07-26T18:30:49.964Z,3.8
2018-07-26T18:32:50.135Z,4.1
2018-07-26T18:34:49.751Z,4.1
2018-07-26T18:36:50.189Z,4.0
2018-07-26T18:38:50.341Z,4.3
2018-07-26T18:40:50.519Z,4.3
2018-07-26T18:42:49.953Z,4.1
2018-07-26T18:44:50.142Z,4.2
2018-07-26T18:46:49.627Z,4.0
2018-07-26T18:48:49.926Z,4.0
2018-07-26T18:50:50.160Z,4.2
2018-07-26T18:52:50.450Z,4.2
2018-07-26T18:54:50.225Z,4.0
2018-07-26T18:56:49.661Z,4.2
2018-07-26T18:58:50.146Z,3.9
2018-07-26T19:00:50.394Z,3.9
2018-07-26T19:02:49.573Z,3.8
2018-07-26T19:04:50.153Z,4.0
2018-07-26T19:06:49.622Z,3.9
2018-07-26T19:08:49.967Z,6.3
2018-07-26T19:10:50.122Z,4.1
2018-07-26T19:12:50.355Z,4.1
2018-07-26T19:14:49.650Z,4.0
2018-07-26T19:16:50.048Z,4.1
2018-07-26T19:18:50.277Z,4.1
2018-07-26T19:20:50.465Z,4.0
2018-07-26T19:22:49.634Z,4.0
2018-07-26T19:24:49.857Z,4.0
2018-07-26T19:26:50.523Z,4.3
2018-07-26T19:28:49.701Z,4.7
2018-07-26T19:30:49.868Z,4.7
2018-07-26T19:32:50.274Z,4.6
2018-07-26T19:34:50.045Z,4.9
2018-07-26T19:36:50.457Z,4.8
2018-07-26T19:38:49.596Z,4.3
2018-07-26T19:40:49.761Z,4.3
2018-07-26T19:42:50.002Z,4.6
2018-07-26T19:44:50.209Z,4.2
2018-07-26T19:46:49.625Z,5.3
2018-07-26T19:48:49.867Z,4.9
2018-07-26T19:50:50.137Z,4.9
2018-07-26T19:52:50.375Z,4.3
2018-07-26T19:54:49.725Z,4.5
2018-07-26T19:56:49.587Z,4.8
2018-07-26T19:58:49.787Z,4.7
2018-07-26T20:00:50.027Z,4.7
2018-07-26T20:02:49.578Z,4.9
2018-07-26T20:04:50.278Z,5.3
2018-07-26T20:06:49.751Z,4.8
2018-07-26T20:08:50.056Z,4.8
2018-07-26T20:10:50.245Z,5.0
2018-07-26T20:12:50.448Z,4.9
2018-07-26T20:14:49.775Z,13.1
2018-07-26T20:16:50.182Z,13.1
2018-07-26T20:18:49.657Z,5.6
2018-07-26T20:20:49.925Z,5.6
2018-07-26T20:22:50.093Z,4.9
2018-07-26T20:24:50.345Z,5.2
2018-07-26T20:26:50.026Z,4.8
2018-07-26T20:28:49.717Z,5.1
2018-07-26T20:30:49.950Z,5.1
2018-07-26T20:32:50.342Z,4.6
2018-07-26T20:34:50.090Z,4.6
2018-07-26T20:36:50.498Z,4.8
2018-07-26T20:38:49.785Z,4.8
2018-07-26T20:40:50.533Z,4.7
2018-07-26T20:42:49.728Z,5.3
2018-07-26T20:44:49.957Z,5.2
2018-07-26T20:46:50.480Z,5.2
2018-07-26T20:48:49.868Z,5.0
2018-07-26T20:50:50.334Z,4.7
2018-07-26T20:52:49.555Z,5.2
2018-07-26T20:54:49.799Z,4.8
2018-07-26T20:56:50.217Z,4.9
2018-07-26T20:58:49.639Z,4.9
2018-07-26T21:00:49.901Z,4.8
2018-07-26T21:02:50.096Z,5.0
2018-07-26T21:04:49.788Z,4.9
2018-07-26T21:06:50.278Z,5.1
2018-07-26T21:08:50.463Z,5.1
2018-07-26T21:10:49.686Z,5.0
2018-07-26T21:12:50.008Z,5.3
2018-07-26T21:14:50.261Z,5.2
2018-07-26T21:16:49.704Z,5.2
2018-07-26T21:18:49.940Z,5.2
2018-07-26T21:20:50.173Z,5.2
2018-07-26T21:22:50.336Z,5.2
2018-07-26T21:24:49.578Z,4.7
2018-07-26T21:26:50.080Z,4.7
2018-07-26T21:28:50.398Z,4.7
2018-07-26T21:30:49.704Z,5.2
2018-07-26T21:32:49.965Z,5.2
2018-07-26T21:34:50.437Z,5.2
2018-07-26T21:36:49.854Z,4.9
2018-07-26T21:38:50.074Z,5.1
2018-07-26T21:40:50.175Z,4.9
2018-07-26T21:42:50.342Z,4.8
2018-07-26T21:44:49.716Z,5.2
2018-07-26T21:46:50.160Z,5.2
2018-07-26T21:48:50.382Z,5.1
2018-07-26T21:50:49.706Z,5.3
2018-07-26T21:52:49.954Z,5.3
2018-07-26T21:54:50.138Z,4.9
2018-07-26T21:56:49.679Z,4.9
2018-07-26T21:58:49.891Z,5.1
2018-07-26T22:00:50.070Z,5.1
2018-07-26T22:02:50.003Z,5.0
2018-07-26T22:04:49.617Z,5.0
2018-07-26T22:06:50.043Z,5.1
2018-07-26T22:08:50.263Z,5.0
2018-07-26T22:10:49.551Z,5.2
2018-07-26T22:12:49.851Z,5.4
2018-07-26T22:14:50.015Z,5.4
2018-07-26T22:16:49.625Z,5.0
2018-07-26T22:18:49.867Z,5.4
2018-07-26T22:20:50.093Z,5.2
2018-07-26T22:22:50.324Z,5.2
2018-07-26T22:24:49.673Z,5.3
2018-07-26T22:26:50.244Z,5.1
2018-07-26T22:28:50.504Z,5.2
2018-07-26T22:30:49.529Z,5.2
2018-07-26T22:32:49.760Z,5.2
2018-07-26T22:34:50.410Z,5.0
2018-07-26T22:36:49.833Z,5.3
2018-07-26T22:38:50.079Z,5.8
2018-07-26T22:40:50.372Z,5.8
2018-07-26T22:42:49.532Z,5.5
2018-07-26T22:44:50.009Z,5.5
2018-07-26T22:46:50.373Z,5.5
2018-07-26T22:48:50.498Z,5.4
2018-07-26T22:50:49.821Z,5.4
2018-07-26T22:52:50.048Z,5.3
2018-07-26T22:54:50.213Z,5.3
2018-07-26T22:56:49.686Z,5.2
2018-07-26T22:58:49.945Z,5.6
2018-07-26T23:00:50.146Z,5.6
2018-07-26T23:02:50.390Z,5.3
2018-07-26T23:04:50.102Z,5.5
2018-07-26T23:06:50.492Z,5.3
2018-07-26T23:08:49.884Z,5.6
2018-07-26T23:10:50.166Z,5.0
2018-07-26T23:12:49.558Z,5.0
2018-07-26T23:14:49.695Z,6.1
2018-07-26T23:16:50.027Z,5.9
2018-07-26T23:18:50.287Z,5.7
2018-07-26T23:20:50.486Z,5.7
2018-07-26T23:22:49.705Z,5.3
2018-07-26T23:24:50.029Z,5.6
2018-07-26T23:26:50.365Z,6.1
2018-07-26T23:28:49.796Z,5.9
2018-07-26T23:30:50.020Z,5.9
2018-07-26T23:32:50.211Z,5.9
2018-07-26T23:34:49.772Z,5.9
2018-07-26T23:36:50.291Z,5.8
2018-07-26T23:38:49.653Z,6.1
2018-07-26T23:40:49.841Z,6.1
2018-07-26T23:42:50.129Z,5.8
2018-07-26T23:44:50.460Z,6.2
2018-07-26T23:46:49.905Z,5.8
2018-07-26T23:48:50.121Z,5.8
2018-07-26T23:50:50.456Z,6.0
2018-07-26T23:52:49.837Z,6.0
2018-07-26T23:54:49.999Z,6.0
2018-07-26T23:56:49.607Z,6.0
2018-07-26T23:58:49.944Z,6.0
